16°C
Gosport, Hampshire, United Kingdom
Language:  English
Updated18/06/2018 20:15:00 
 

Nearby METAR Reports

 

EGHI - Southampton Wx Centre, United Kingdom
Distance from station: NW 15mi, 24km
Updated: 18-Jun-2018 19:50:00
Partly cloudy
Partly cloudy
 Wind from SW
Wind: SW 12 mph , 19 km/h
Temperature: 17°C
Dew Point: 14°C
Humidity: 83%
Barometer: 1021 hPa
Clouds: Partly cloudy
Visibility: 6 miles , 10 km
Cloud details: Partly cloudy 366 m
Partly cloudy 1128 m
2018/06/18 18:50 EGHI 181850Z 23010KT 200V260 9999 SCT012 SCT037 17/14 Q1021
EGHH - Bournemouth Airport, United Kingdom
Distance from station: W 30mi, 49km
Updated: 18-Jun-2018 19:50:00
Mostly cloudy
Mostly cloudy
 Wind from W
Wind: W 12 mph , 19 km/h
Temperature: 17°C
Dew Point: 15°C
Humidity: 88%
Barometer: 1021 hPa
Clouds: Mostly cloudy
Visibility: 6 miles , 9 km
Cloud details: Mostly cloudy 213 m
2018/06/18 18:50 EGHH 181850Z 26010KT 9000 BKN007 17/15 Q1021
EGVP - Middle Wallop Airfield, United Kingdom
Distance from station: NW 31mi, 49km
Updated: 18-Jun-2018 19:50:00
Mostly cloudy
Mostly cloudy
 Wind from SW
Wind: SW 9 mph , 15 km/h
Temperature: 18°C
Dew Point: 15°C
Humidity: 83%
Barometer: 1021 hPa
Clouds: Mostly cloudy
Visibility: 6 miles , 10 km
Cloud details: Few Clouds 335 m
Mostly cloudy 1128 m
2018/06/18 18:50 EGVP 181850Z 22008KT 9999 FEW011 BKN037 18/15 Q1021 BLU
 
EGVO - RAF Odiham, United Kingdom
Distance from station: NNE 32mi, 52km
Updated: 18-Jun-2018 19:50:00
Mostly cloudy
Mostly cloudy
 Wind from SW
Wind: SW 14 mph , 22 km/h
Temperature: 18°C
Dew Point: 14°C
Humidity: 78%
Barometer: 1020 hPa
Clouds: Mostly cloudy
Visibility: 6 miles , 10 km
Cloud details: Few Clouds 457 m
Mostly cloudy 701 m
Mostly cloudy 975 m
2018/06/18 18:50 EGVO 181850Z 23012KT 9999 FEW015 BKN023 BKN032 18/14 Q1020 WHT NOSIG
EGKA - Shoreham Airport, United Kingdom
Distance from station: E 37mi, 59km
Updated: 18-Jun-2018 19:50:00
Partly cloudy
Partly cloudy
 Wind from WSW
Wind: WSW 17 mph , 28 km/h
Temperature: 16°C
Dew Point: 14°C
Humidity: 88%
Barometer: 1021 hPa
Clouds: Partly cloudy
Visibility: 5 miles , 8 km
Cloud details: Partly cloudy 274 m
2018/06/18 18:50 EGKA 181850Z 24015KT 8000 SCT009 16/14 Q1021
EGDM - Boscombe Down, United Kingdom
Distance from station: NW 38mi, 61km
Updated: 18-Jun-2018 19:50:00
Mostly cloudy
Mostly cloudy
 Wind from SSW
Wind: SSW 14 mph , 22 km/h
Temperature: 18°C
Dew Point: 15°C
Humidity: 83%
Barometer: 1020 hPa
Clouds: Mostly cloudy
Visibility: 6 miles , 10 km
Cloud details: Few Clouds 335 m
Partly cloudy 610 m
Mostly cloudy 1219 m
2018/06/18 18:50 EGDM 181850Z 21012KT 9999 FEW011 SCT020 BKN040 18/15 Q1020 WHT
 
EGLF - Farnborough, United Kingdom
Distance from station: NNE 38mi, 61km
Updated: 18-Jun-2018 19:50:00
Partly cloudy
Partly cloudy
 Wind from SW
Wind: SW 12 mph , 19 km/h
Temperature: 19°C
Dew Point: 14°C
Humidity: 73%
Barometer: 1021 hPa
Clouds: Partly cloudy
Visibility: 6 miles , 10 km
Cloud details: Partly cloudy 1067 m
2018/06/18 18:50 EGLF 181850Z 22010KT 9999 SCT035 19/14 Q1021
EGKK - Gatwick Airport, United Kingdom
Distance from station: ENE 49mi, 78km
Updated: 18-Jun-2018 19:50:00
Partly cloudy
Partly cloudy
 Wind from WSW
Wind: WSW 10 mph , 17 km/h
Temperature: 19°C
Dew Point: 14°C
Humidity: 73%
Barometer: 1021 hPa
Clouds: Partly cloudy
Visibility: 6 miles , 10 km
Cloud details: Partly cloudy 1006 m
2018/06/18 18:50 EGKK 181850Z 24009KT 190V260 9999 SCT033 19/14 Q1021
EGLL - Heathrow Airport, United Kingdom
Distance from station: NNE 57mi, 91km
Updated: 18-Jun-2018 19:50:00
Overcast
Overcast
 Wind from WSW
Wind: WSW 15 mph , 24 km/h
Temperature: 21°C
Dew Point: 14°C
Humidity: 64%
Barometer: 1020 hPa
Clouds: Overcast
Visibility: 6 miles , 10 km
Cloud details: Overcast 975 m
2018/06/18 18:50 EGLL 181850Z AUTO 24013KT 9999 OVC032 21/14 Q1020 NOSIG
 
EGUB - RAF Benson, United Kingdom
Distance from station: N 58mi, 93km
Updated: 18-Jun-2018 19:50:00
Mostly cloudy
Mostly cloudy
 Wind from SW
Wind: SW 13 mph , 20 km/h
Temperature: 19°C
Dew Point: 14°C
Humidity: 73%
Barometer: 1019 hPa
Clouds: Mostly cloudy
Visibility: 6 miles , 10 km
Cloud details: Mostly cloudy 701 m
2018/06/18 18:50 EGUB 181850Z 22011KT 9999 BKN023 19/14 Q1019 WHT NOSIG
EGWU - RAF Northolt, United Kingdom
Distance from station: NNE 62mi, 99km
Updated: 18-Jun-2018 19:50:00
Mostly cloudy
Mostly cloudy
 Wind from W
Wind: W 17 mph , 28 km/h
Temperature: 21°C
Dew Point: 14°C
Humidity: 64%
Barometer: 1019 hPa
Clouds: Mostly cloudy
Visibility: 6 miles , 10 km
Cloud details: Few Clouds 853 m
Mostly cloudy 1036 m
2018/06/18 18:50 EGWU 181850Z 26015KT 9999 FEW028 BKN034 21/14 Q1019 BECMG BKN024
EGKB - Biggin Hill Airport, United Kingdom
Distance from station: NE 62mi, 100km
Updated: 18-Jun-2018 19:50:00
Partly cloudy
Partly cloudy
 Wind from SSW
Wind: SSW 15 mph , 24 km/h
Temperature: 18°C
Dew Point: 14°C
Humidity: 78%
Barometer: 1020 hPa
Clouds: Partly cloudy
Visibility: 6 miles , 10 km
Cloud details: Partly cloudy 914 m
2018/06/18 18:50 EGKB 181850Z 21013KT 9999 SCT030 18/14 Q1020
 
EGDY - RNAS Yeovilton, United Kingdom
Distance from station: WNW 66mi, 107km
Updated: 18-Jun-2018 19:50:00
Mostly cloudy
Mostly cloudy
 Wind from SSW
Wind: SSW 10 mph , 17 km/h
Temperature: 19°C
Dew Point: 16°C
Humidity: 83%
Barometer: 1021 hPa
Clouds: Mostly cloudy
Visibility: 6 miles , 10 km
Cloud details: Few Clouds 274 m
Mostly cloudy 549 m
Mostly cloudy 1067 m
2018/06/18 18:50 EGDY 181850Z 21009KT 9999 FEW009 BKN018 BKN035 19/16 Q1021 WHT NOSIG
EGUO - Colerne Airfield, United Kingdom
Distance from station: NW 67mi, 108km
Updated: 21-Mar-2018 08:50:00
NOT Current
Clear
Clear
 Wind from W
Wind: W 6 mph , 9 km/h
Temperature: 5°C
Wind Chill: 3°C
Dew Point: 1°C
Humidity: 76%
Barometer: 1032 hPa
Clouds: Clear
Visibility: 6 miles , 10 km
2018/03/21 08:50 EGUO 210850Z 27005KT 9999 NCD 05/01 Q1032 BLU NOSIG
EGVA - RAF Fairford, United Kingdom
Distance from station: NNW 67mi, 108km
Updated: 18-Jun-2018 20:11:00
Light drizzle, Overcast
Light drizzle, Overcast
 Wind from WSW
Wind: WSW 14 mph , 22 km/h
Temperature: 17°C
Dew Point: 16°C
Humidity: 94%
Barometer: 1019.6 hPa
Summary: Light Drizzle
Clouds: Overcast
Visibility: 6 miles , 10 km
Cloud details: Mostly cloudy 244 m
Overcast 427 m
2018/06/18 19:11 EGVA 181911Z AUTO 25012KT 9999 -DZ BKN008 OVC014 17/16 A3011 RMK AO2 DZB11 BKN V OVC SLP199 $
 
EGVN - RAF Brize Norton, United Kingdom
Distance from station: NNW 71mi, 114km
Updated: 18-Jun-2018 20:07:00
Light drizzle, Mostly cloudy
Light drizzle, Mostly cloudy
 Wind from W
Wind: W 12 mph , 19 km/h
Temperature: 18°C
Dew Point: 15°C
Humidity: 83%
Barometer: 1019 hPa
Summary: Light Drizzle
Clouds: Mostly cloudy
Visibility: 6 miles , 10 km
Cloud details: Mostly cloudy 366 m
Mostly cloudy 762 m
2018/06/18 19:07 EGVN 181907Z 26010KT 9999 -DZ BKN012 BKN025 18/15 Q1019 GRN TEMPO BKN015 WHT
EGLC - London City Airport, United Kingdom
Distance from station: NE 71mi, 115km
Updated: 18-Jun-2018 19:50:00
Partly cloudy
Partly cloudy
 Wind from SW
Wind: SW 17 mph , 28 km/h
Temperature: 22°C
Dew Point: 14°C
Humidity: 61%
Barometer: 1019 hPa
Clouds: Partly cloudy
Visibility: 6 miles , 10 km
Cloud details: Partly cloudy 1158 m
2018/06/18 18:50 EGLC 181850Z AUTO 23015KT 9999 SCT038 22/14 Q1019
EGGD - Bristol Airport, United Kingdom
Distance from station: WNW 80mi, 128km
Updated: 18-Jun-2018 19:50:00
Drizzle, Overcast
Drizzle, Overcast
 Wind from W
Wind: W 15 mph , 24 km/h
Temperature: 16°C
Dew Point: 16°C
Humidity: 100%
Barometer: 1021 hPa
Summary: Drizzle
Clouds: Overcast
Visibility: 2 miles , 3 km
Cloud details: Overcast 91 m
2018/06/18 18:50 EGGD 181850Z AUTO 26013KT 3000 DZ OVC003 16/16 Q1021
 
LFRC - Cherbourg-Maupertus Airport, France
Distance from station: S 81mi, 130km
Updated: 18-Jun-2018 20:00:00
Overcast
Overcast
 Wind from W
Wind: W 17 mph , 28 km/h
Temperature: 15°C
Dew Point: 14°C
Humidity: 94%
Barometer: 1024 hPa
Clouds: Overcast
Visibility: 6 miles , 10 km
Cloud details: Overcast 152 m
2018/06/18 19:00 LFRC 181900Z AUTO 26015KT 9999 OVC005 15/14 Q1024
EGGW - Luton Airport, United Kingdom
Distance from station: NNE 82mi, 132km
Updated: 18-Jun-2018 19:50:00
Overcast
Overcast
 Wind from WSW
Wind: WSW 16 mph , 26 km/h
Temperature: 20°C
Dew Point: 15°C
Humidity: 73%
Barometer: 1019 hPa
Clouds: Overcast
Visibility: 6 miles , 10 km
Cloud details: Mostly cloudy 671 m
Overcast 792 m
2018/06/18 18:50 EGGW 181850Z AUTO 24014KT 9999 BKN022 OVC026 20/15 Q1019